createdAt,value
2018-09-30T00:00:46.265Z,5.25
2018-09-30T00:03:13.373Z,5.29
2018-09-30T00:05:41.061Z,5.22
2018-09-30T00:08:08.128Z,5.09
2018-09-30T02:40:57.558Z,3.72
2018-09-30T02:43:24.306Z,3.70
2018-09-30T02:45:50.951Z,3.69
2018-09-30T02:48:17.764Z,3.72
2018-09-30T03:17:52.142Z,3.73
2018-09-30T03:20:18.675Z,3.88
2018-09-30T04:03:46.946Z,4.06
2018-09-30T04:06:13.582Z,4.18
2018-09-30T04:28:28.831Z,4.38
2018-09-30T04:30:55.363Z,4.40
2018-09-30T04:33:21.927Z,4.44
2018-09-30T04:35:48.446Z,4.53
2018-09-30T04:38:15.365Z,4.70
2018-09-30T04:40:41.866Z,4.72
2018-09-30T04:43:08.336Z,4.63
2018-09-30T04:45:35.252Z,4.54
2018-09-30T04:48:01.716Z,4.46
2018-09-30T04:50:28.204Z,4.31
2018-09-30T04:52:55.205Z,4.23
2018-09-30T04:55:21.688Z,4.16
2018-09-30T05:12:09.498Z,3.52
2018-09-30T05:14:36.509Z,3.47
2018-09-30T05:17:03.116Z,3.45
2018-09-30T05:19:29.805Z,3.39
2018-09-30T05:21:56.458Z,3.36
2018-09-30T05:24:23.500Z,3.49
2018-09-30T05:26:50.140Z,3.35
2018-09-30T05:29:16.779Z,3.42
2018-09-30T05:31:43.250Z,3.56
2018-09-30T05:34:10.058Z,3.70
2018-09-30T05:36:36.528Z,3.83
2018-09-30T05:39:02.988Z,4.26
2018-09-30T05:41:29.460Z,4.17
2018-09-30T05:43:56.364Z,3.92
2018-09-30T05:46:22.873Z,3.89
2018-09-30T05:48:49.347Z,3.91
2018-09-30T05:51:15.849Z,3.98
2018-09-30T05:53:42.718Z,4.12
2018-09-30T05:56:09.289Z,4.68
2018-09-30T05:58:35.806Z,5.26
2018-09-30T06:01:02.616Z,5.56
2018-09-30T06:03:29.085Z,6.04
2018-09-30T06:05:55.556Z,5.96
2018-09-30T06:08:22.364Z,5.47
2018-09-30T06:10:48.837Z,5.13
2018-09-30T06:13:15.395Z,5.11
2018-09-30T06:15:43.075Z,4.91
2018-09-30T06:18:09.558Z,4.64
2018-09-30T06:20:36.956Z,5.05
2018-09-30T06:23:03.781Z,5.61
2018-09-30T06:29:43.818Z,6.13
2018-09-30T06:38:13.156Z,4.85
2018-09-30T06:40:39.791Z,4.60
2018-09-30T06:43:10.003Z,4.53
2018-09-30T06:45:36.960Z,4.64
2018-09-30T06:48:03.518Z,4.76
2018-09-30T06:50:30.061Z,4.81
2018-09-30T06:53:00.593Z,4.91
2018-09-30T06:55:28.626Z,5.06
2018-09-30T06:57:55.135Z,5.18
2018-09-30T07:25:23.485Z,6.60
2018-09-30T07:27:50.539Z,6.73
2018-09-30T07:30:18.925Z,6.96
2018-09-30T07:32:45.857Z,7.16
2018-09-30T07:35:13.327Z,7.33
2018-09-30T08:08:59.350Z,9.34
2018-09-30T08:11:26.160Z,9.32
2018-09-30T08:13:55.355Z,9.48
2018-09-30T08:16:22.771Z,9.58
2018-09-30T08:18:50.461Z,9.70
2018-09-30T08:21:18.950Z,9.82
2018-09-30T08:23:46.753Z,9.95
2018-09-30T08:28:18.767Z,10.29
2018-09-30T08:30:45.656Z,10.42
2018-09-30T08:33:12.571Z,10.59
2018-09-30T08:35:41.220Z,10.74
2018-09-30T08:38:07.726Z,11.02
2018-09-30T08:40:34.487Z,11.26
2018-09-30T08:43:01.333Z,11.38
2018-09-30T08:45:28.797Z,11.49
2018-09-30T08:47:55.456Z,11.71
2018-09-30T08:50:25.971Z,11.92
2018-09-30T08:52:52.624Z,12.05
2018-09-30T08:55:20.791Z,12.23
2018-09-30T08:57:47.976Z,12.41
2018-09-30T09:53:15.781Z,14.39
2018-09-30T10:16:54.690Z,15.14
2018-09-30T10:23:29.135Z,15.25
2018-09-30T10:25:56.180Z,15.32
2018-09-30T11:25:13.885Z,17.17
2018-09-30T11:27:40.366Z,16.87
2018-09-30T11:30:07.229Z,16.93
2018-09-30T11:32:33.736Z,17.01
2018-09-30T11:35:00.725Z,17.22
2018-09-30T11:37:27.568Z,17.37
2018-09-30T12:10:09.307Z,17.41
2018-09-30T12:12:38.284Z,17.10
2018-09-30T12:20:13.959Z,17.42
2018-09-30T12:22:40.498Z,17.35
2018-09-30T18:29:40.742Z,11.42
2018-09-30T18:41:27.472Z,11.14
2018-09-30T18:43:56.476Z,11.02
2018-09-30T19:17:08.234Z,10.35
2018-09-30T19:19:35.416Z,10.33
2018-09-30T19:24:39.530Z,10.23
2018-09-30T20:12:18.522Z,9.18
2018-09-30T20:27:53.762Z,9.12
2018-09-30T20:45:09.764Z,9.36
2018-09-30T20:47:36.388Z,9.36
2018-09-30T20:52:41.753Z,9.62
2018-09-30T21:09:19.999Z,9.80
2018-09-30T21:11:46.983Z,9.46
2018-09-30T21:14:15.481Z,9.34
2018-09-30T21:16:42.287Z,9.37
2018-09-30T21:19:08.856Z,9.54
2018-09-30T21:21:37.236Z,9.34
2018-09-30T21:24:03.765Z,8.91
2018-09-30T22:13:22.929Z,10.71
2018-09-30T22:19:11.701Z,10.68
2018-09-30T22:21:38.881Z,10.69
2018-09-30T22:24:06.694Z,10.72
2018-09-30T22:55:45.324Z,10.43
2018-09-30T22:58:12.637Z,10.01
2018-09-30T23:00:39.607Z,10.09
2018-09-30T23:03:07.274Z,10.23
2018-09-30T23:05:34.557Z,10.35
2018-09-30T23:08:01.532Z,10.38
2018-09-30T23:10:29.450Z,10.40
2018-09-30T23:12:56.021Z,10.43
2018-09-30T23:15:22.888Z,10.43
2018-09-30T23:17:49.390Z,10.46
2018-09-30T23:20:19.636Z,10.49
2018-09-30T23:22:46.137Z,10.49
2018-09-30T23:28:35.993Z,10.47
